X  Fechar Dados meteorológicos de METAR da aviação     LYNI Nis Airport
Temperatura
1°C Temperatura
-10°C Ponto de orvalho
44% Umidade



Vento
14 KM/H
9 MPH
4 M/S
8 NÓS



40°
NL
Condições atuais

Nuvens esparsas Nuvens esparsas
Pressão 1038.91 (hPa) - 30.68 (inHg)
Visibilidade 6.2 (milha) - 10 (km)
Aeroporto
Código do aeroporto LYNI

Localização: Nis Airport
Distância: 63 (km)

Metar:
LYNI 081430Z 04008KT 010V070 9999 SCT050 01/M10 Q1039 NOSIG

Hora: 08-02-2023 14:30 CET